createdAt,value
2023-04-05T00:00:13.594Z,74.23
2023-04-05T00:02:41.959Z,74.59
2023-04-05T00:05:11.697Z,74.64
2023-04-05T00:07:40.876Z,74.83
2023-04-05T00:10:09.209Z,74.91
2023-04-05T00:12:36.948Z,74.96
2023-04-05T00:15:05.292Z,75.33
2023-04-05T00:17:33.107Z,75.64
2023-04-05T00:20:01.820Z,75.89
2023-04-05T00:22:31.866Z,76.24
2023-04-05T00:25:01.013Z,76.87
2023-04-05T00:27:28.847Z,77.15
2023-04-05T00:29:56.874Z,77.22
2023-04-05T00:32:24.694Z,77.76
2023-04-05T00:34:52.452Z,77.78
2023-04-05T00:37:20.252Z,77.85
2023-04-05T00:39:48.217Z,78.24
2023-04-05T00:42:17.371Z,78.53
2023-04-05T00:44:45.090Z,78.43
2023-04-05T00:47:12.827Z,78.88
2023-04-05T00:49:42.168Z,78.66
2023-04-05T00:52:09.924Z,79.16
2023-04-05T00:54:39.165Z,78.96
2023-04-05T00:57:07.472Z,79.12
2023-04-05T00:59:36.544Z,79.20
2023-04-05T01:02:09.709Z,79.13
2023-04-05T01:04:39.746Z,78.70
2023-04-05T01:07:13.290Z,78.47
2023-04-05T01:09:48.662Z,78.03
2023-04-05T01:12:18.970Z,78.53
2023-04-05T01:14:50.916Z,78.49
2023-04-05T01:17:22.258Z,78.19
2023-04-05T01:19:53.475Z,78.47
2023-04-05T01:23:07.272Z,78.44
2023-04-05T01:26:00.069Z,78.31
2023-04-05T01:28:44.181Z,78.59
2023-04-05T01:31:16.096Z,78.66
2023-04-05T01:33:50.619Z,78.26
2023-04-05T01:36:25.073Z,78.14
2023-04-05T01:38:55.986Z,78.23
2023-04-05T01:41:24.541Z,77.64
2023-04-05T01:43:52.278Z,77.86
2023-04-05T01:46:21.439Z,77.60
2023-04-05T01:48:49.205Z,77.75
2023-04-05T01:51:16.939Z,77.84
2023-04-05T01:53:44.673Z,77.58
2023-04-05T01:56:12.380Z,77.69
2023-04-05T01:58:40.134Z,78.03
2023-04-05T02:01:07.931Z,78.73
2023-04-05T02:03:37.278Z,78.24
2023-04-05T02:06:06.471Z,78.55
2023-04-05T02:08:34.277Z,78.83
2023-04-05T02:11:02.353Z,78.33
2023-04-05T02:13:30.151Z,78.90
2023-04-05T02:15:57.924Z,77.92
2023-04-05T02:18:31.215Z,78.26
2023-04-05T02:21:04.710Z,78.28
2023-04-05T02:23:33.049Z,78.24
2023-04-05T02:26:01.282Z,78.21
2023-04-05T02:28:28.996Z,78.65
2023-04-05T02:30:56.908Z,77.98
2023-04-05T02:33:24.647Z,78.67
2023-04-05T02:35:54.801Z,78.30
2023-04-05T02:38:23.985Z,77.88
2023-04-05T02:40:52.105Z,78.67
2023-04-05T02:43:19.835Z,78.61
2023-04-05T02:45:47.659Z,78.11
2023-04-05T02:48:15.484Z,77.74
2023-04-05T02:50:43.348Z,78.45
2023-04-05T02:53:11.234Z,77.90
2023-04-05T02:55:42.089Z,77.34
2023-04-05T02:58:10.127Z,78.11
2023-04-05T03:00:38.388Z,77.80
2023-04-05T03:03:06.502Z,77.99
2023-04-05T03:05:34.360Z,78.43
2023-04-05T03:08:02.375Z,79.24
2023-04-05T03:10:34.944Z,78.65
2023-04-05T03:13:04.065Z,78.53
2023-04-05T03:15:33.842Z,79.28
2023-04-05T03:18:01.652Z,79.59
2023-04-05T03:20:29.444Z,79.11
2023-04-05T03:22:57.735Z,79.72
2023-04-05T03:25:25.617Z,79.46
2023-04-05T03:27:53.945Z,79.89
2023-04-05T03:30:23.434Z,79.85
2023-04-05T03:32:51.555Z,79.63
2023-04-05T03:35:19.388Z,79.48
2023-04-05T03:37:47.272Z,79.80
2023-04-05T03:40:15.128Z,79.53
2023-04-05T03:42:44.429Z,79.68
2023-04-05T03:45:12.741Z,79.58
2023-04-05T03:47:41.870Z,79.52
2023-04-05T03:50:10.496Z,79.84
2023-04-05T03:52:38.235Z,79.59
2023-04-05T03:55:06.878Z,80.32
2023-04-05T03:57:34.857Z,80.30
2023-04-05T04:00:04.009Z,79.31
2023-04-05T04:02:31.820Z,79.80
2023-04-05T04:05:01.106Z,79.74
2023-04-05T04:07:28.848Z,79.47
2023-04-05T04:09:56.636Z,79.04
2023-04-05T04:12:24.434Z,78.87
2023-04-05T04:14:52.115Z,78.25
2023-04-05T04:17:28.059Z,78.15
2023-04-05T04:19:55.894Z,78.20
2023-04-05T04:22:26.760Z,78.53
2023-04-05T04:24:54.705Z,78.46
2023-04-05T04:27:22.700Z,77.98
2023-04-05T04:29:56.921Z,78.37
2023-04-05T04:32:27.123Z,78.15
2023-04-05T04:34:55.907Z,78.13
2023-04-05T04:37:30.268Z,78.22
2023-04-05T04:40:06.197Z,78.59
2023-04-05T04:42:38.872Z,78.41
2023-04-05T04:45:07.681Z,78.91
2023-04-05T04:47:35.402Z,79.26
2023-04-05T04:50:04.741Z,78.85
2023-04-05T04:52:34.932Z,78.93
2023-04-05T04:55:03.429Z,79.22
2023-04-05T04:57:31.202Z,79.15
2023-04-05T04:59:58.989Z,79.38
2023-04-05T05:02:29.119Z,78.83
2023-04-05T05:04:58.333Z,78.83
2023-04-05T05:07:26.165Z,79.67
2023-04-05T05:09:55.459Z,79.71
2023-04-05T05:12:23.603Z,79.41
2023-04-05T05:14:51.343Z,79.71
2023-04-05T05:17:19.033Z,79.45
2023-04-05T05:19:46.862Z,79.93
2023-04-05T05:22:14.646Z,79.64
2023-04-05T05:24:42.587Z,80.00
2023-04-05T05:27:11.733Z,80.34
2023-04-05T05:29:39.485Z,79.64
2023-04-05T05:32:07.592Z,79.38
2023-04-05T05:34:35.654Z,79.34
2023-04-05T05:37:03.398Z,79.74
2023-04-05T05:39:31.123Z,80.06
2023-04-05T05:41:58.916Z,79.70
2023-04-05T05:44:28.215Z,79.76
2023-04-05T05:46:56.108Z,79.33
2023-04-05T05:49:24.017Z,80.27
2023-04-05T05:51:52.636Z,80.13
2023-04-05T05:54:20.765Z,79.49
2023-04-05T05:56:48.482Z,80.31
2023-04-05T05:59:16.360Z,80.07
2023-04-05T06:01:46.517Z,79.99
2023-04-05T06:04:14.721Z,79.46
2023-04-05T06:06:43.750Z,80.17
2023-04-05T06:09:11.806Z,80.27
2023-04-05T06:11:49.509Z,80.03
2023-04-05T06:14:23.597Z,79.86
2023-04-05T06:16:52.738Z,80.17
2023-04-05T06:19:20.573Z,80.29
2023-04-05T06:21:48.318Z,79.74
2023-04-05T06:24:16.052Z,79.78
2023-04-05T06:26:44.051Z,79.88
2023-04-05T06:29:12.131Z,80.47
2023-04-05T06:31:41.531Z,80.73
2023-04-05T06:34:10.666Z,80.84
2023-04-05T06:36:38.385Z,80.25
2023-04-05T06:39:06.360Z,80.97
2023-04-05T06:41:34.080Z,81.03
2023-04-05T06:44:01.909Z,81.25
2023-04-05T06:46:29.878Z,80.60
2023-04-05T06:48:57.610Z,80.54
2023-04-05T06:51:27.079Z,80.81
2023-04-05T06:53:54.794Z,80.41
2023-04-05T06:56:23.227Z,80.13
2023-04-05T06:58:51.812Z,79.81
2023-04-05T07:01:19.673Z,79.71
2023-04-05T07:03:47.645Z,79.26
2023-04-05T07:06:15.745Z,79.00
2023-04-05T07:08:44.808Z,78.49
2023-04-05T07:11:14.667Z,77.78
2023-04-05T07:13:42.816Z,76.93
2023-04-05T07:16:10.651Z,76.66
2023-04-05T07:18:38.422Z,76.10
2023-04-05T07:21:06.328Z,76.01
2023-04-05T07:23:34.134Z,75.84
2023-04-05T07:26:05.692Z,75.10
2023-04-05T07:28:35.547Z,74.26
2023-04-05T07:31:04.153Z,73.83
2023-04-05T07:33:31.991Z,73.12
2023-04-05T07:35:59.779Z,72.26
2023-04-05T07:38:29.280Z,71.59
2023-04-05T07:40:57.484Z,71.06
2023-04-05T07:43:26.943Z,70.61
2023-04-05T07:46:02.626Z,69.91
2023-04-05T07:48:30.415Z,68.72
2023-04-05T07:50:58.617Z,68.66
2023-04-05T07:53:26.385Z,67.83
2023-04-05T07:55:54.589Z,67.19
2023-04-05T07:58:22.640Z,66.79
2023-04-05T08:00:53.196Z,66.51
2023-04-05T08:03:21.031Z,65.66
2023-04-05T08:05:48.874Z,64.92
2023-04-05T08:08:16.686Z,66.09
2023-04-05T08:10:44.493Z,64.82
2023-04-05T08:13:12.375Z,64.54
2023-04-05T08:15:41.434Z,64.04
2023-04-05T08:18:10.785Z,62.66
2023-04-05T08:20:40.792Z,62.34
2023-04-05T08:23:08.959Z,59.77
2023-04-05T08:25:36.841Z,59.45
2023-04-05T08:28:05.477Z,58.79
2023-04-05T08:30:33.275Z,58.14
2023-04-05T08:33:01.130Z,58.12
2023-04-05T08:35:30.561Z,56.08
2023-04-05T08:37:58.318Z,56.44
2023-04-05T08:40:34.357Z,55.60
2023-04-05T08:43:11.360Z,54.41
2023-04-05T08:45:51.900Z,54.79
2023-04-05T08:48:20.635Z,54.39
2023-04-05T08:50:53.440Z,52.26
2023-04-05T08:53:21.529Z,51.61
2023-04-05T08:55:52.126Z,53.17
2023-04-05T08:58:22.543Z,52.85
2023-04-05T09:00:52.039Z,51.78
2023-04-05T09:03:23.690Z,48.65
2023-04-05T09:05:54.140Z,49.65
2023-04-05T09:08:22.329Z,49.80
2023-04-05T09:10:52.036Z,48.65
2023-04-05T09:13:19.844Z,48.70
2023-04-05T09:15:48.035Z,47.36
2023-04-05T09:18:26.258Z,46.29
2023-04-05T09:21:04.134Z,44.27
2023-04-05T09:23:31.956Z,45.93
2023-04-05T09:25:59.727Z,45.35
2023-04-05T09:28:43.848Z,44.66
2023-04-05T09:31:11.638Z,44.07
2023-04-05T09:33:39.550Z,44.25
2023-04-05T09:36:09.283Z,43.23
2023-04-05T09:38:47.648Z,40.24
2023-04-05T09:41:15.497Z,40.67
2023-04-05T09:43:44.028Z,41.88
2023-04-05T09:46:30.779Z,41.90
2023-04-05T09:48:58.640Z,42.31
2023-04-05T09:51:33.872Z,41.76
2023-04-05T09:54:03.067Z,41.44
2023-04-05T09:56:32.540Z,40.52
2023-04-05T09:59:02.346Z,40.93
2023-04-05T10:01:32.394Z,39.89
2023-04-05T10:04:01.010Z,38.63
2023-04-05T10:06:40.089Z,39.57
2023-04-05T10:09:09.656Z,39.83
2023-04-05T10:11:38.667Z,37.85
2023-04-05T10:14:07.821Z,37.37
2023-04-05T10:16:39.367Z,37.27
2023-04-05T10:19:14.733Z,38.81
2023-04-05T10:21:45.376Z,39.04
2023-04-05T10:24:23.345Z,38.43
2023-04-05T10:27:01.030Z,38.38
2023-04-05T10:29:36.007Z,37.83
2023-04-05T10:32:11.190Z,37.92
2023-04-05T10:34:46.484Z,38.00
2023-04-05T10:37:31.531Z,35.88
2023-04-05T10:40:04.469Z,36.81
2023-04-05T10:42:39.773Z,36.82
2023-04-05T10:45:11.478Z,35.73
2023-04-05T10:47:45.975Z,36.50
2023-04-05T10:50:21.329Z,36.93
2023-04-05T10:52:51.831Z,37.17
2023-04-05T10:55:20.251Z,36.63
2023-04-05T10:57:49.760Z,36.52
2023-04-05T11:00:19.729Z,35.79
2023-04-05T11:02:49.319Z,35.67
2023-04-05T11:05:37.389Z,36.65
2023-04-05T11:08:08.530Z,35.46
2023-04-05T11:10:38.703Z,36.16
2023-04-05T11:13:08.816Z,35.83
2023-04-05T11:15:37.193Z,35.47
2023-04-05T11:18:10.484Z,35.08
2023-04-05T11:20:46.150Z,35.69
2023-04-05T11:23:16.598Z,35.03
2023-04-05T11:25:49.452Z,34.65
2023-04-05T11:28:29.937Z,35.42
2023-04-05T11:30:59.039Z,33.49
2023-04-05T11:33:56.930Z,33.78
2023-04-05T11:36:41.823Z,35.83
2023-04-05T11:39:27.053Z,32.29
2023-04-05T11:42:00.950Z,32.10
2023-04-05T11:44:30.399Z,35.10
2023-04-05T11:46:58.515Z,34.92
2023-04-05T11:49:26.947Z,35.22
2023-04-05T11:51:55.712Z,34.90
2023-04-05T11:54:32.216Z,34.95
2023-04-05T11:57:00.203Z,34.37
2023-04-05T11:59:32.791Z,33.66
2023-04-05T12:02:02.164Z,33.61
2023-04-05T12:04:29.967Z,34.12
2023-04-05T12:07:14.486Z,32.92
2023-04-05T12:10:03.692Z,32.55
2023-04-05T12:12:36.056Z,32.67
2023-04-05T12:15:05.391Z,32.26
2023-04-05T12:17:47.168Z,33.05
2023-04-05T12:20:16.827Z,33.39
2023-04-05T12:22:46.086Z,31.76
2023-04-05T12:25:16.066Z,32.86
2023-04-05T12:27:44.117Z,33.11
2023-04-05T12:30:18.060Z,32.76
2023-04-05T12:32:47.265Z,33.18
2023-04-05T12:35:17.454Z,32.93
2023-04-05T12:37:45.595Z,32.62
2023-04-05T12:40:15.311Z,32.74
2023-04-05T12:42:43.306Z,32.77
2023-04-05T12:45:13.310Z,33.15
2023-04-05T12:47:52.120Z,32.25
2023-04-05T12:50:27.271Z,32.56
2023-04-05T12:52:59.894Z,32.26
2023-04-05T12:55:30.891Z,31.89
2023-04-05T12:58:01.254Z,31.72
2023-04-05T13:00:31.135Z,30.87
2023-04-05T13:03:00.576Z,30.56
2023-04-05T13:05:30.038Z,30.85
2023-04-05T13:07:57.837Z,31.49
2023-04-05T13:10:26.559Z,31.82
2023-04-05T13:12:55.768Z,30.92
2023-04-05T13:15:23.707Z,31.65
2023-04-05T13:17:53.368Z,31.54
2023-04-05T13:20:21.836Z,31.01
2023-04-05T13:22:49.848Z,30.98
2023-04-05T13:25:18.143Z,31.31
2023-04-05T13:27:45.939Z,28.91
2023-04-05T13:30:15.465Z,31.13
2023-04-05T13:32:43.265Z,31.27
2023-04-05T13:35:11.724Z,31.07
2023-04-05T13:37:39.597Z,30.55
2023-04-05T13:40:08.768Z,29.55
2023-04-05T13:42:36.585Z,30.12
2023-04-05T13:45:04.658Z,30.77
2023-04-05T13:47:33.788Z,30.90
2023-04-05T13:50:02.708Z,30.38
2023-04-05T13:52:30.573Z,30.44
2023-04-05T13:55:02.206Z,28.67
2023-04-05T13:57:32.488Z,30.99
2023-04-05T14:00:00.546Z,31.42
2023-04-05T14:02:28.919Z,30.50
2023-04-05T14:04:58.193Z,30.82
2023-04-05T14:07:26.515Z,31.10
2023-04-05T14:09:54.212Z,31.18
2023-04-05T14:12:22.017Z,30.88
2023-04-05T14:14:49.777Z,30.58
2023-04-05T14:17:17.641Z,30.95
2023-04-05T14:19:45.506Z,31.10
2023-04-05T14:22:15.715Z,30.79
2023-04-05T14:24:43.543Z,30.99
2023-04-05T14:27:11.335Z,30.74
2023-04-05T14:29:39.153Z,29.83
2023-04-05T14:32:07.161Z,30.90
2023-04-05T14:34:36.210Z,31.00
2023-04-05T14:37:04.228Z,30.85
2023-04-05T14:39:33.486Z,31.19
2023-04-05T14:42:01.481Z,31.19
2023-04-05T14:44:29.323Z,31.17
2023-04-05T14:46:57.194Z,31.17
2023-04-05T14:49:24.992Z,32.50
2023-04-05T14:51:55.448Z,32.40
2023-04-05T14:54:23.299Z,32.80
2023-04-05T14:56:52.531Z,31.84
2023-04-05T14:59:20.393Z,32.24
2023-04-05T15:01:48.626Z,35.26
2023-04-05T15:04:16.446Z,35.79
2023-04-05T15:06:44.342Z,34.39
2023-04-05T15:09:12.205Z,35.06
2023-04-05T15:11:40.308Z,35.46
2023-04-05T15:14:15.451Z,35.20
2023-04-05T15:16:49.181Z,33.74
2023-04-05T15:19:17.560Z,32.97
2023-04-05T15:21:45.885Z,33.13
2023-04-05T15:24:13.761Z,33.16
2023-04-05T15:26:41.845Z,33.41
2023-04-05T15:29:11.051Z,32.03
2023-04-05T15:31:39.533Z,33.24
2023-04-05T15:34:08.445Z,33.04
2023-04-05T15:36:36.636Z,33.25
2023-04-05T15:39:05.365Z,33.44
2023-04-05T15:41:34.549Z,32.86
2023-04-05T15:44:03.605Z,32.90
2023-04-05T15:46:33.377Z,33.04
2023-04-05T15:49:01.530Z,33.28
2023-04-05T15:51:29.520Z,33.23
2023-04-05T15:53:57.382Z,33.04
2023-04-05T15:56:25.401Z,33.54
2023-04-05T15:58:53.312Z,33.29
2023-04-05T16:01:21.243Z,32.55
2023-04-05T16:03:50.824Z,32.64
2023-04-05T16:06:18.787Z,33.54
2023-04-05T16:08:46.589Z,33.71
2023-04-05T16:11:14.453Z,33.99
2023-04-05T16:13:42.295Z,33.46
2023-04-05T16:16:10.174Z,34.00
2023-04-05T16:18:38.104Z,33.96
2023-04-05T16:21:07.438Z,34.03
2023-04-05T16:23:35.538Z,33.98
2023-04-05T16:26:03.727Z,33.98
2023-04-05T16:28:31.845Z,34.42
2023-04-05T16:31:00.159Z,34.14
2023-04-05T16:33:28.048Z,33.59
2023-04-05T16:35:56.082Z,34.47
2023-04-05T16:38:25.575Z,34.49
2023-04-05T16:40:53.445Z,34.48
2023-04-05T16:43:21.262Z,34.87
2023-04-05T16:45:49.115Z,34.78
2023-04-05T16:48:17.449Z,34.85
2023-04-05T16:50:45.360Z,34.83
2023-04-05T16:53:15.007Z,34.79
2023-04-05T16:55:44.230Z,35.07
2023-04-05T16:58:12.125Z,34.75
2023-04-05T17:00:39.988Z,34.38
2023-04-05T17:03:07.983Z,35.07
2023-04-05T17:05:35.963Z,35.15
2023-04-05T17:08:03.807Z,35.12
2023-04-05T17:10:31.755Z,34.45
2023-04-05T17:13:00.936Z,34.95
2023-04-05T17:15:28.897Z,35.16
2023-04-05T17:17:56.913Z,35.53
2023-04-05T17:20:24.964Z,36.98
2023-04-05T17:22:53.266Z,35.66
2023-04-05T17:25:21.185Z,35.45
2023-04-05T17:27:49.009Z,36.08
2023-04-05T17:30:18.505Z,36.11
2023-04-05T17:32:46.530Z,36.60
2023-04-05T17:35:14.399Z,36.26
2023-04-05T17:37:42.205Z,36.66
2023-04-05T17:40:10.997Z,36.84
2023-04-05T17:42:38.890Z,37.01
2023-04-05T17:45:08.047Z,36.92
2023-04-05T17:47:37.313Z,37.06
2023-04-05T17:50:05.871Z,37.22
2023-04-05T17:52:33.770Z,37.55
2023-04-05T17:55:01.603Z,37.69
2023-04-05T17:57:29.473Z,37.32
2023-04-05T17:59:59.245Z,37.89
2023-04-05T18:02:27.964Z,37.61
2023-04-05T18:04:57.231Z,38.13
2023-04-05T18:07:25.045Z,38.28
2023-04-05T18:09:52.942Z,38.24
2023-04-05T18:12:20.789Z,38.31
2023-04-05T18:14:48.680Z,38.38
2023-04-05T18:17:17.864Z,38.48
2023-04-05T18:19:45.806Z,38.46
2023-04-05T18:22:15.044Z,38.38
2023-04-05T18:24:43.042Z,38.90
2023-04-05T18:27:11.398Z,39.08
2023-04-05T18:29:39.443Z,39.96
2023-04-05T18:32:08.266Z,40.05
2023-04-05T18:34:36.583Z,39.94
2023-04-05T18:37:04.470Z,41.08
2023-04-05T18:39:33.681Z,41.59
2023-04-05T18:42:02.766Z,42.82
2023-04-05T18:44:30.595Z,43.24
2023-04-05T18:46:58.763Z,43.18
2023-04-05T18:49:26.781Z,43.41
2023-04-05T18:51:55.884Z,44.00
2023-04-05T18:54:24.079Z,43.90
2023-04-05T18:56:53.285Z,44.06
2023-04-05T18:59:21.349Z,44.16
2023-04-05T19:01:49.311Z,44.39
2023-04-05T19:04:17.374Z,44.50
2023-04-05T19:06:45.238Z,44.80
2023-04-05T19:09:13.174Z,45.10
2023-04-05T19:11:40.992Z,45.86
2023-04-05T19:14:10.424Z,46.28
2023-04-05T19:16:38.283Z,46.29
2023-04-05T19:19:07.266Z,46.69
2023-04-05T19:21:35.431Z,47.49
2023-04-05T19:24:03.307Z,47.75
2023-04-05T19:26:32.066Z,48.31
2023-04-05T19:28:59.891Z,48.48
2023-04-05T19:31:29.718Z,48.85
2023-04-05T19:33:57.649Z,49.16
2023-04-05T19:36:26.026Z,49.37
2023-04-05T19:38:53.924Z,49.73
2023-04-05T19:41:21.782Z,50.27
2023-04-05T19:43:50.411Z,50.40
2023-04-05T19:46:19.093Z,50.45
2023-04-05T19:48:48.417Z,51.17
2023-04-05T19:51:18.152Z,51.71
2023-04-05T19:53:48.902Z,51.30
2023-04-05T19:56:19.442Z,51.86
2023-04-05T19:58:49.173Z,52.36
2023-04-05T20:01:32.203Z,52.20
2023-04-05T20:04:02.243Z,52.45
2023-04-05T20:06:34.644Z,52.84
2023-04-05T20:09:04.234Z,53.12
2023-04-05T20:11:32.067Z,53.39
2023-04-05T20:14:02.279Z,54.23
2023-04-05T20:16:31.679Z,54.25
2023-04-05T20:19:02.465Z,54.56
2023-04-05T20:21:30.928Z,54.42
2023-04-05T20:23:59.322Z,54.91
2023-04-05T20:26:29.333Z,54.94
2023-04-05T20:28:59.071Z,55.17
2023-04-05T20:31:29.260Z,55.21
2023-04-05T20:33:59.215Z,55.34
2023-04-05T20:36:33.894Z,54.94
2023-04-05T20:39:02.569Z,55.45
2023-04-05T20:41:31.448Z,55.42
2023-04-05T20:44:00.152Z,56.35
2023-04-05T20:46:28.157Z,56.75
2023-04-05T20:48:57.489Z,57.02
2023-04-05T20:51:25.635Z,57.27
2023-04-05T20:53:54.878Z,57.60
2023-04-05T20:56:22.746Z,57.48
2023-04-05T20:58:50.608Z,57.76
2023-04-05T21:01:18.506Z,57.79
2023-04-05T21:03:46.650Z,58.76
2023-04-05T21:06:14.550Z,57.87
2023-04-05T21:08:42.375Z,58.17
2023-04-05T21:11:12.024Z,58.84
2023-04-05T21:13:41.315Z,58.42
2023-04-05T21:16:09.561Z,58.68
2023-04-05T21:18:37.826Z,59.13
2023-04-05T21:21:06.114Z,58.20
2023-04-05T21:23:34.370Z,58.61
2023-04-05T21:26:04.187Z,59.00
2023-04-05T21:28:33.597Z,58.76
2023-04-05T21:31:01.528Z,59.25
2023-04-05T21:33:29.394Z,58.76
2023-04-05T21:35:57.261Z,58.98
2023-04-05T21:38:25.107Z,59.33
2023-04-05T21:40:52.951Z,58.52
2023-04-05T21:43:20.759Z,59.19
2023-04-05T21:45:49.921Z,59.42
2023-04-05T21:48:17.679Z,59.21
2023-04-05T21:50:45.478Z,59.88
2023-04-05T21:53:14.583Z,59.43
2023-04-05T21:55:42.488Z,59.40
2023-04-05T21:58:10.415Z,59.94
2023-04-05T22:00:38.298Z,60.46
2023-04-05T22:03:07.610Z,60.29
2023-04-05T22:05:38.596Z,60.21
2023-04-05T22:08:07.766Z,60.44
2023-04-05T22:10:36.441Z,61.11
2023-04-05T22:13:04.358Z,60.13
2023-04-05T22:15:32.177Z,60.19
2023-04-05T22:18:00.215Z,60.36
2023-04-05T22:20:29.506Z,60.68
2023-04-05T22:22:57.376Z,61.79
2023-04-05T22:25:26.395Z,61.06
2023-04-05T22:27:59.463Z,61.96
2023-04-05T22:30:28.252Z,62.41
2023-04-05T22:32:56.407Z,62.21
2023-04-05T22:35:24.320Z,61.99
2023-04-05T22:37:53.550Z,62.35
2023-04-05T22:40:26.311Z,62.42
2023-04-05T22:42:54.218Z,62.47
2023-04-05T22:45:22.053Z,62.42
2023-04-05T22:47:49.889Z,60.98
2023-04-05T22:50:18.390Z,60.64
2023-04-05T22:52:46.605Z,61.11
2023-04-05T22:55:16.021Z,60.82
2023-04-05T22:57:43.848Z,60.10
2023-04-05T23:00:13.544Z,60.04
2023-04-05T23:02:41.341Z,59.58
2023-04-05T23:05:10.012Z,59.04
2023-04-05T23:07:37.802Z,59.15
2023-04-05T23:10:06.275Z,59.22
2023-04-05T23:12:35.673Z,58.83
2023-04-05T23:15:03.485Z,58.25
2023-04-05T23:17:31.588Z,58.39
2023-04-05T23:19:59.441Z,57.52
2023-04-05T23:22:27.537Z,57.59
2023-04-05T23:24:55.331Z,57.83
2023-04-05T23:27:23.092Z,58.05
2023-04-05T23:29:52.244Z,57.26
2023-04-05T23:32:20.143Z,57.44
2023-04-05T23:34:48.136Z,57.53
2023-04-05T23:37:16.424Z,57.52
2023-04-05T23:39:44.418Z,57.38
2023-04-05T23:42:12.166Z,56.88
2023-04-05T23:44:39.967Z,57.00
2023-04-05T23:47:09.238Z,57.02
2023-04-05T23:49:37.044Z,56.92
2023-04-05T23:52:05.163Z,56.92
2023-04-05T23:54:32.942Z,56.21
2023-04-05T23:57:01.452Z,55.47
2023-04-05T23:59:29.299Z,56.30
